sensor_id;sensor_type;location;lat;lon;timestamp;P1;durP1;ratioP1;P2;durP2;ratioP2
10805;SDS011;5455;53.224;6.000;2023-03-20T00:02:19;3.70;;;1.20;;
10805;SDS011;5455;53.224;6.000;2023-03-20T00:04:47;4.23;;;1.60;;
10805;SDS011;5455;53.224;6.000;2023-03-20T00:07:14;3.30;;;1.47;;
10805;SDS011;5455;53.224;6.000;2023-03-20T00:09:41;2.53;;;1.30;;
10805;SDS011;5455;53.224;6.000;2023-03-20T00:12:13;2.30;;;1.30;;
10805;SDS011;5455;53.224;6.000;2023-03-20T00:14:41;2.33;;;1.10;;
10805;SDS011;5455;53.224;6.000;2023-03-20T00:17:09;4.10;;;1.70;;
10805;SDS011;5455;53.224;6.000;2023-03-20T00:19:43;1.87;;;1.10;;
10805;SDS011;5455;53.224;6.000;2023-03-20T00:22:11;2.50;;;1.33;;
10805;SDS011;5455;53.224;6.000;2023-03-20T00:24:39;5.07;;;1.40;;
10805;SDS011;5455;53.224;6.000;2023-03-20T00:27:08;3.27;;;1.40;;
10805;SDS011;5455;53.224;6.000;2023-03-20T00:29:39;4.87;;;1.43;;
10805;SDS011;5455;53.224;6.000;2023-03-20T00:32:13;4.47;;;1.77;;
10805;SDS011;5455;53.224;6.000;2023-03-20T00:34:40;5.03;;;1.30;;
10805;SDS011;5455;53.224;6.000;2023-03-20T00:37:08;2.87;;;1.40;;
10805;SDS011;5455;53.224;6.000;2023-03-20T00:39:37;3.10;;;1.63;;
10805;SDS011;5455;53.224;6.000;2023-03-20T00:42:04;3.83;;;1.53;;
10805;SDS011;5455;53.224;6.000;2023-03-20T00:44:35;4.13;;;1.50;;
10805;SDS011;5455;53.224;6.000;2023-03-20T00:47:11;3.70;;;1.70;;
10805;SDS011;5455;53.224;6.000;2023-03-20T00:49:41;3.90;;;1.80;;
10805;SDS011;5455;53.224;6.000;2023-03-20T00:52:08;3.70;;;2.07;;
10805;SDS011;5455;53.224;6.000;2023-03-20T00:54:39;4.87;;;2.00;;
10805;SDS011;5455;53.224;6.000;2023-03-20T00:57:28;4.00;;;1.90;;
10805;SDS011;5455;53.224;6.000;2023-03-20T01:00:00;4.23;;;1.80;;
10805;SDS011;5455;53.224;6.000;2023-03-20T01:02:32;4.50;;;1.80;;
10805;SDS011;5455;53.224;6.000;2023-03-20T01:04:59;3.70;;;1.83;;
10805;SDS011;5455;53.224;6.000;2023-03-20T01:07:27;4.53;;;2.00;;
10805;SDS011;5455;53.224;6.000;2023-03-20T01:09:54;6.23;;;1.80;;
10805;SDS011;5455;53.224;6.000;2023-03-20T01:12:21;3.27;;;1.80;;
10805;SDS011;5455;53.224;6.000;2023-03-20T01:14:50;4.37;;;1.90;;
10805;SDS011;5455;53.224;6.000;2023-03-20T01:17:21;3.90;;;1.73;;
10805;SDS011;5455;53.224;6.000;2023-03-20T01:19:49;6.20;;;1.83;;
10805;SDS011;5455;53.224;6.000;2023-03-20T01:22:17;4.20;;;1.93;;
10805;SDS011;5455;53.224;6.000;2023-03-20T01:24:45;4.93;;;2.10;;
10805;SDS011;5455;53.224;6.000;2023-03-20T01:27:13;5.57;;;2.27;;
10805;SDS011;5455;53.224;6.000;2023-03-20T01:29:43;7.23;;;2.23;;
10805;SDS011;5455;53.224;6.000;2023-03-20T01:32:11;3.40;;;1.83;;
10805;SDS011;5455;53.224;6.000;2023-03-20T01:34:49;2.63;;;1.80;;
10805;SDS011;5455;53.224;6.000;2023-03-20T01:37:21;4.23;;;1.67;;
10805;SDS011;5455;53.224;6.000;2023-03-20T01:39:51;5.40;;;2.00;;
10805;SDS011;5455;53.224;6.000;2023-03-20T01:42:19;5.93;;;2.23;;
10805;SDS011;5455;53.224;6.000;2023-03-20T01:44:47;6.43;;;2.20;;
10805;SDS011;5455;53.224;6.000;2023-03-20T01:47:16;6.67;;;2.10;;
10805;SDS011;5455;53.224;6.000;2023-03-20T01:52:46;6.40;;;2.30;;
10805;SDS011;5455;53.224;6.000;2023-03-20T01:55:17;5.47;;;2.40;;
10805;SDS011;5455;53.224;6.000;2023-03-20T01:57:52;7.13;;;2.27;;
10805;SDS011;5455;53.224;6.000;2023-03-20T02:00:22;3.80;;;2.03;;
10805;SDS011;5455;53.224;6.000;2023-03-20T02:02:50;9.33;;;2.50;;
10805;SDS011;5455;53.224;6.000;2023-03-20T02:05:37;6.70;;;2.10;;
10805;SDS011;5455;53.224;6.000;2023-03-20T02:10:58;7.10;;;2.40;;
10805;SDS011;5455;53.224;6.000;2023-03-20T02:13:29;3.40;;;2.03;;
10805;SDS011;5455;53.224;6.000;2023-03-20T02:16:03;4.67;;;2.07;;
10805;SDS011;5455;53.224;6.000;2023-03-20T02:18:53;4.67;;;2.30;;
10805;SDS011;5455;53.224;6.000;2023-03-20T02:36:22;5.27;;;2.60;;
10805;SDS011;5455;53.224;6.000;2023-03-20T02:44:07;8.73;;;3.00;;
10805;SDS011;5455;53.224;6.000;2023-03-20T02:52:04;5.27;;;2.90;;
10805;SDS011;5455;53.224;6.000;2023-03-20T02:57:29;6.33;;;2.93;;
10805;SDS011;5455;53.224;6.000;2023-03-20T03:00:12;4.53;;;2.73;;
10805;SDS011;5455;53.224;6.000;2023-03-20T03:02:48;8.17;;;3.00;;
10805;SDS011;5455;53.224;6.000;2023-03-20T03:05:22;8.27;;;3.30;;
10805;SDS011;5455;53.224;6.000;2023-03-20T03:07:56;6.10;;;2.67;;
10805;SDS011;5455;53.224;6.000;2023-03-20T03:10:33;4.33;;;2.60;;
10805;SDS011;5455;53.224;6.000;2023-03-20T03:13:05;5.87;;;3.20;;
10805;SDS011;5455;53.224;6.000;2023-03-20T03:15:45;4.60;;;2.80;;
10805;SDS011;5455;53.224;6.000;2023-03-20T03:18:19;4.43;;;2.50;;
10805;SDS011;5455;53.224;6.000;2023-03-20T03:20:51;4.30;;;2.50;;
10805;SDS011;5455;53.224;6.000;2023-03-20T03:23:27;9.70;;;2.87;;
10805;SDS011;5455;53.224;6.000;2023-03-20T03:26:00;6.30;;;2.80;;
10805;SDS011;5455;53.224;6.000;2023-03-20T03:28:35;5.93;;;2.67;;
10805;SDS011;5455;53.224;6.000;2023-03-20T03:31:13;5.23;;;2.57;;
10805;SDS011;5455;53.224;6.000;2023-03-20T03:33:45;6.67;;;2.90;;
10805;SDS011;5455;53.224;6.000;2023-03-20T03:36:24;6.00;;;3.07;;
10805;SDS011;5455;53.224;6.000;2023-03-20T03:41:47;4.97;;;2.30;;
10805;SDS011;5455;53.224;6.000;2023-03-20T03:47:17;6.07;;;2.87;;
10805;SDS011;5455;53.224;6.000;2023-03-20T03:49:52;6.43;;;3.43;;
10805;SDS011;5455;53.224;6.000;2023-03-20T03:52:25;7.30;;;3.23;;
10805;SDS011;5455;53.224;6.000;2023-03-20T03:54:59;9.23;;;2.87;;
10805;SDS011;5455;53.224;6.000;2023-03-20T03:57:55;5.90;;;2.90;;
10805;SDS011;5455;53.224;6.000;2023-03-20T04:00:43;4.83;;;3.20;;
10805;SDS011;5455;53.224;6.000;2023-03-20T04:03:16;5.43;;;3.07;;
10805;SDS011;5455;53.224;6.000;2023-03-20T04:05:49;4.30;;;2.73;;
10805;SDS011;5455;53.224;6.000;2023-03-20T04:08:20;5.50;;;3.07;;
10805;SDS011;5455;53.224;6.000;2023-03-20T04:10:47;8.07;;;3.60;;
10805;SDS011;5455;53.224;6.000;2023-03-20T04:13:15;8.33;;;3.87;;
10805;SDS011;5455;53.224;6.000;2023-03-20T04:15:43;8.20;;;3.97;;
10805;SDS011;5455;53.224;6.000;2023-03-20T04:18:13;7.67;;;4.03;;
10805;SDS011;5455;53.224;6.000;2023-03-20T04:20:44;7.17;;;3.87;;
10805;SDS011;5455;53.224;6.000;2023-03-20T04:23:12;9.80;;;4.70;;
10805;SDS011;5455;53.224;6.000;2023-03-20T04:25:41;8.50;;;4.97;;
10805;SDS011;5455;53.224;6.000;2023-03-20T04:28:08;8.03;;;4.63;;
10805;SDS011;5455;53.224;6.000;2023-03-20T04:30:51;8.13;;;4.70;;
10805;SDS011;5455;53.224;6.000;2023-03-20T04:33:32;8.77;;;5.33;;
10805;SDS011;5455;53.224;6.000;2023-03-20T04:36:04;10.50;;;5.83;;
10805;SDS011;5455;53.224;6.000;2023-03-20T04:38:31;11.50;;;5.10;;
10805;SDS011;5455;53.224;6.000;2023-03-20T04:40:59;16.77;;;5.90;;
10805;SDS011;5455;53.224;6.000;2023-03-20T04:43:27;7.70;;;5.33;;
10805;SDS011;5455;53.224;6.000;2023-03-20T04:45:54;8.07;;;4.97;;
10805;SDS011;5455;53.224;6.000;2023-03-20T04:48:22;10.37;;;5.00;;
10805;SDS011;5455;53.224;6.000;2023-03-20T04:50:49;10.30;;;5.30;;
10805;SDS011;5455;53.224;6.000;2023-03-20T04:53:20;9.50;;;5.13;;
10805;SDS011;5455;53.224;6.000;2023-03-20T04:55:50;8.60;;;5.40;;
10805;SDS011;5455;53.224;6.000;2023-03-20T04:58:17;11.77;;;4.93;;
10805;SDS011;5455;53.224;6.000;2023-03-20T05:00:45;11.90;;;5.20;;
10805;SDS011;5455;53.224;6.000;2023-03-20T05:03:12;8.40;;;4.80;;
10805;SDS011;5455;53.224;6.000;2023-03-20T05:05:39;9.37;;;5.03;;
10805;SDS011;5455;53.224;6.000;2023-03-20T05:08:06;9.70;;;5.37;;
10805;SDS011;5455;53.224;6.000;2023-03-20T05:10:35;11.07;;;5.20;;
10805;SDS011;5455;53.224;6.000;2023-03-20T05:13:20;8.13;;;5.10;;
10805;SDS011;5455;53.224;6.000;2023-03-20T05:15:56;9.33;;;5.13;;
10805;SDS011;5455;53.224;6.000;2023-03-20T05:18:36;12.03;;;6.63;;
10805;SDS011;5455;53.224;6.000;2023-03-20T05:21:23;13.67;;;6.10;;
10805;SDS011;5455;53.224;6.000;2023-03-20T05:24:09;13.17;;;6.53;;
10805;SDS011;5455;53.224;6.000;2023-03-20T05:27:08;9.80;;;6.00;;
10805;SDS011;5455;53.224;6.000;2023-03-20T05:29:46;13.80;;;7.20;;
10805;SDS011;5455;53.224;6.000;2023-03-20T05:32:32;15.87;;;7.30;;
10805;SDS011;5455;53.224;6.000;2023-03-20T05:35:04;15.57;;;7.50;;
10805;SDS011;5455;53.224;6.000;2023-03-20T05:37:52;14.57;;;7.03;;
10805;SDS011;5455;53.224;6.000;2023-03-20T05:40:40;11.53;;;6.77;;
10805;SDS011;5455;53.224;6.000;2023-03-20T05:43:26;17.50;;;7.57;;
10805;SDS011;5455;53.224;6.000;2023-03-20T05:46:17;13.00;;;6.77;;
10805;SDS011;5455;53.224;6.000;2023-03-20T05:49:10;13.93;;;7.00;;
10805;SDS011;5455;53.224;6.000;2023-03-20T05:52:01;10.90;;;4.53;;
10805;SDS011;5455;53.224;6.000;2023-03-20T05:54:54;13.33;;;6.93;;
10805;SDS011;5455;53.224;6.000;2023-03-20T05:57:45;15.17;;;7.47;;
10805;SDS011;5455;53.224;6.000;2023-03-20T06:00:41;14.77;;;7.47;;
10805;SDS011;5455;53.224;6.000;2023-03-20T06:03:37;14.87;;;7.00;;
10805;SDS011;5455;53.224;6.000;2023-03-20T06:06:10;12.63;;;6.40;;
10805;SDS011;5455;53.224;6.000;2023-03-20T06:08:38;13.47;;;6.77;;
10805;SDS011;5455;53.224;6.000;2023-03-20T06:11:06;12.60;;;6.97;;
10805;SDS011;5455;53.224;6.000;2023-03-20T06:13:36;11.20;;;6.53;;
10805;SDS011;5455;53.224;6.000;2023-03-20T06:16:04;8.83;;;5.20;;
10805;SDS011;5455;53.224;6.000;2023-03-20T06:18:31;10.83;;;6.70;;
10805;SDS011;5455;53.224;6.000;2023-03-20T06:20:59;12.07;;;6.37;;
10805;SDS011;5455;53.224;6.000;2023-03-20T06:23:28;12.27;;;6.73;;
10805;SDS011;5455;53.224;6.000;2023-03-20T06:25:55;15.83;;;6.93;;
10805;SDS011;5455;53.224;6.000;2023-03-20T06:28:24;10.07;;;6.00;;
10805;SDS011;5455;53.224;6.000;2023-03-20T06:30:59;12.77;;;5.93;;
10805;SDS011;5455;53.224;6.000;2023-03-20T06:33:27;11.43;;;5.33;;
10805;SDS011;5455;53.224;6.000;2023-03-20T06:35:58;10.43;;;5.83;;
10805;SDS011;5455;53.224;6.000;2023-03-20T06:38:28;12.93;;;6.43;;
10805;SDS011;5455;53.224;6.000;2023-03-20T06:40:57;12.33;;;7.40;;
10805;SDS011;5455;53.224;6.000;2023-03-20T06:43:24;16.63;;;6.73;;
10805;SDS011;5455;53.224;6.000;2023-03-20T06:45:52;16.00;;;7.73;;
10805;SDS011;5455;53.224;6.000;2023-03-20T06:48:25;13.50;;;7.10;;
10805;SDS011;5455;53.224;6.000;2023-03-20T06:50:52;14.17;;;6.63;;
10805;SDS011;5455;53.224;6.000;2023-03-20T06:53:24;13.87;;;6.80;;
10805;SDS011;5455;53.224;6.000;2023-03-20T06:56:21;14.13;;;6.77;;
10805;SDS011;5455;53.224;6.000;2023-03-20T06:58:50;11.27;;;6.30;;
10805;SDS011;5455;53.224;6.000;2023-03-20T07:01:17;12.63;;;6.90;;
10805;SDS011;5455;53.224;6.000;2023-03-20T07:03:46;13.47;;;6.73;;
10805;SDS011;5455;53.224;6.000;2023-03-20T07:06:18;11.10;;;6.23;;
10805;SDS011;5455;53.224;6.000;2023-03-20T07:08:45;11.83;;;6.70;;
10805;SDS011;5455;53.224;6.000;2023-03-20T07:11:12;9.10;;;5.93;;
10805;SDS011;5455;53.224;6.000;2023-03-20T07:13:40;11.50;;;6.20;;
10805;SDS011;5455;53.224;6.000;2023-03-20T07:16:20;10.73;;;6.33;;
10805;SDS011;5455;53.224;6.000;2023-03-20T07:18:48;10.87;;;6.60;;
10805;SDS011;5455;53.224;6.000;2023-03-20T07:21:16;14.20;;;7.03;;
10805;SDS011;5455;53.224;6.000;2023-03-20T07:23:46;14.53;;;7.10;;
10805;SDS011;5455;53.224;6.000;2023-03-20T07:26:13;12.07;;;6.77;;
10805;SDS011;5455;53.224;6.000;2023-03-20T07:28:40;15.00;;;7.27;;
10805;SDS011;5455;53.224;6.000;2023-03-20T07:31:20;13.70;;;5.87;;
10805;SDS011;5455;53.224;6.000;2023-03-20T07:33:55;18.70;;;7.90;;
10805;SDS011;5455;53.224;6.000;2023-03-20T07:36:22;12.03;;;7.33;;
10805;SDS011;5455;53.224;6.000;2023-03-20T07:38:50;19.17;;;7.37;;
10805;SDS011;5455;53.224;6.000;2023-03-20T07:41:17;14.23;;;7.37;;
10805;SDS011;5455;53.224;6.000;2023-03-20T07:43:54;12.83;;;7.10;;
10805;SDS011;5455;53.224;6.000;2023-03-20T07:46:45;15.83;;;7.00;;
10805;SDS011;5455;53.224;6.000;2023-03-20T07:49:14;13.00;;;7.20;;
10805;SDS011;5455;53.224;6.000;2023-03-20T07:51:45;12.57;;;7.27;;
10805;SDS011;5455;53.224;6.000;2023-03-20T07:54:14;14.60;;;7.00;;
10805;SDS011;5455;53.224;6.000;2023-03-20T07:56:42;16.03;;;7.83;;
10805;SDS011;5455;53.224;6.000;2023-03-20T07:59:09;13.20;;;7.30;;
10805;SDS011;5455;53.224;6.000;2023-03-20T08:01:37;10.27;;;6.53;;
10805;SDS011;5455;53.224;6.000;2023-03-20T08:04:04;15.20;;;7.83;;
10805;SDS011;5455;53.224;6.000;2023-03-20T08:06:31;14.47;;;7.80;;
10805;SDS011;5455;53.224;6.000;2023-03-20T08:08:59;13.23;;;6.97;;
10805;SDS011;5455;53.224;6.000;2023-03-20T08:11:26;14.87;;;6.77;;
10805;SDS011;5455;53.224;6.000;2023-03-20T08:13:53;11.20;;;6.67;;
10805;SDS011;5455;53.224;6.000;2023-03-20T08:16:20;13.37;;;6.90;;
10805;SDS011;5455;53.224;6.000;2023-03-20T08:18:47;11.87;;;6.37;;
10805;SDS011;5455;53.224;6.000;2023-03-20T08:21:16;13.60;;;6.50;;
10805;SDS011;5455;53.224;6.000;2023-03-20T08:23:43;11.47;;;6.60;;
10805;SDS011;5455;53.224;6.000;2023-03-20T08:26:10;11.23;;;5.50;;
10805;SDS011;5455;53.224;6.000;2023-03-20T08:28:37;13.07;;;6.17;;
10805;SDS011;5455;53.224;6.000;2023-03-20T08:31:14;11.67;;;6.50;;
10805;SDS011;5455;53.224;6.000;2023-03-20T08:33:45;14.77;;;6.20;;
10805;SDS011;5455;53.224;6.000;2023-03-20T08:36:13;9.33;;;6.27;;
10805;SDS011;5455;53.224;6.000;2023-03-20T08:38:41;14.10;;;5.93;;
10805;SDS011;5455;53.224;6.000;2023-03-20T08:41:09;11.40;;;5.90;;
10805;SDS011;5455;53.224;6.000;2023-03-20T08:43:36;13.00;;;6.83;;
10805;SDS011;5455;53.224;6.000;2023-03-20T08:46:03;10.67;;;5.87;;
10805;SDS011;5455;53.224;6.000;2023-03-20T08:48:31;12.30;;;6.47;;
10805;SDS011;5455;53.224;6.000;2023-03-20T08:50:58;10.77;;;5.90;;
10805;SDS011;5455;53.224;6.000;2023-03-20T08:53:25;11.60;;;5.63;;
10805;SDS011;5455;53.224;6.000;2023-03-20T08:55:53;10.37;;;5.30;;
10805;SDS011;5455;53.224;6.000;2023-03-20T08:58:20;9.17;;;5.20;;
10805;SDS011;5455;53.224;6.000;2023-03-20T09:00:48;10.50;;;5.70;;
10805;SDS011;5455;53.224;6.000;2023-03-20T09:03:17;10.03;;;5.13;;
10805;SDS011;5455;53.224;6.000;2023-03-20T09:05:47;11.70;;;5.17;;
10805;SDS011;5455;53.224;6.000;2023-03-20T09:08:16;13.97;;;5.73;;
10805;SDS011;5455;53.224;6.000;2023-03-20T09:10:45;10.47;;;5.47;;
10805;SDS011;5455;53.224;6.000;2023-03-20T09:13:13;13.00;;;5.60;;
10805;SDS011;5455;53.224;6.000;2023-03-20T09:15:53;11.97;;;5.23;;
10805;SDS011;5455;53.224;6.000;2023-03-20T09:18:21;12.40;;;5.10;;
10805;SDS011;5455;53.224;6.000;2023-03-20T09:20:49;11.93;;;5.13;;
10805;SDS011;5455;53.224;6.000;2023-03-20T09:23:17;11.73;;;5.37;;
10805;SDS011;5455;53.224;6.000;2023-03-20T09:25:45;9.50;;;5.63;;
10805;SDS011;5455;53.224;6.000;2023-03-20T09:28:12;11.23;;;5.90;;
10805;SDS011;5455;53.224;6.000;2023-03-20T09:30:39;11.07;;;5.27;;
10805;SDS011;5455;53.224;6.000;2023-03-20T09:33:09;13.07;;;5.37;;
10805;SDS011;5455;53.224;6.000;2023-03-20T09:35:37;12.13;;;4.57;;
10805;SDS011;5455;53.224;6.000;2023-03-20T09:38:04;13.37;;;5.70;;
10805;SDS011;5455;53.224;6.000;2023-03-20T09:48:52;10.93;;;4.97;;
10805;SDS011;5455;53.224;6.000;2023-03-20T09:51:37;8.47;;;4.93;;
10805;SDS011;5455;53.224;6.000;2023-03-20T09:54:17;12.97;;;5.37;;
10805;SDS011;5455;53.224;6.000;2023-03-20T09:56:51;10.17;;;4.97;;
10805;SDS011;5455;53.224;6.000;2023-03-20T09:59:21;9.47;;;5.10;;
10805;SDS011;5455;53.224;6.000;2023-03-20T10:01:52;13.07;;;4.60;;
10805;SDS011;5455;53.224;6.000;2023-03-20T10:04:28;16.37;;;5.50;;
10805;SDS011;5455;53.224;6.000;2023-03-20T10:06:55;9.67;;;5.17;;
10805;SDS011;5455;53.224;6.000;2023-03-20T10:09:23;9.53;;;5.50;;
10805;SDS011;5455;53.224;6.000;2023-03-20T10:14:36;12.17;;;4.70;;
10805;SDS011;5455;53.224;6.000;2023-03-20T10:18:11;8.90;;;5.20;;
10805;SDS011;5455;53.224;6.000;2023-03-20T10:20:22;9.97;;;4.67;;
10805;SDS011;5455;53.224;6.000;2023-03-20T10:23:39;16.30;;;5.07;;
10805;SDS011;5455;53.224;6.000;2023-03-20T10:26:04;8.27;;;5.00;;
10805;SDS011;5455;53.224;6.000;2023-03-20T10:28:42;9.87;;;4.17;;
10805;SDS011;5455;53.224;6.000;2023-03-20T10:40:32;10.70;;;4.77;;
10805;SDS011;5455;53.224;6.000;2023-03-20T10:43:03;12.13;;;4.40;;
10805;SDS011;5455;53.224;6.000;2023-03-20T10:45:51;6.60;;;3.53;;
10805;SDS011;5455;53.224;6.000;2023-03-20T10:48:26;10.27;;;3.97;;
10805;SDS011;5455;53.224;6.000;2023-03-20T10:51:00;9.87;;;4.20;;
10805;SDS011;5455;53.224;6.000;2023-03-20T10:53:33;7.87;;;4.30;;
10805;SDS011;5455;53.224;6.000;2023-03-20T10:56:07;8.50;;;3.90;;
10805;SDS011;5455;53.224;6.000;2023-03-20T10:58:43;9.73;;;3.37;;
10805;SDS011;5455;53.224;6.000;2023-03-20T11:01:11;9.10;;;3.50;;
10805;SDS011;5455;53.224;6.000;2023-03-20T11:03:38;8.97;;;3.60;;
10805;SDS011;5455;53.224;6.000;2023-03-20T11:06:26;9.27;;;3.00;;
10805;SDS011;5455;53.224;6.000;2023-03-20T11:09:07;13.00;;;3.60;;
10805;SDS011;5455;53.224;6.000;2023-03-20T11:11:38;7.73;;;3.70;;
10805;SDS011;5455;53.224;6.000;2023-03-20T11:14:16;7.80;;;3.10;;
10805;SDS011;5455;53.224;6.000;2023-03-20T11:16:50;10.17;;;3.10;;
10805;SDS011;5455;53.224;6.000;2023-03-20T11:19:19;6.17;;;3.53;;
10805;SDS011;5455;53.224;6.000;2023-03-20T11:21:51;10.17;;;3.13;;
10805;SDS011;5455;53.224;6.000;2023-03-20T11:24:26;9.37;;;3.60;;
10805;SDS011;5455;53.224;6.000;2023-03-20T11:27:08;5.63;;;3.07;;
10805;SDS011;5455;53.224;6.000;2023-03-20T11:29:37;5.77;;;3.20;;
10805;SDS011;5455;53.224;6.000;2023-03-20T11:32:29;6.20;;;3.37;;
10805;SDS011;5455;53.224;6.000;2023-03-20T11:40:57;6.00;;;3.70;;
10805;SDS011;5455;53.224;6.000;2023-03-20T11:43:25;7.77;;;3.67;;
10805;SDS011;5455;53.224;6.000;2023-03-20T11:45:55;9.20;;;4.00;;
10805;SDS011;5455;53.224;6.000;2023-03-20T11:48:24;10.30;;;3.90;;
10805;SDS011;5455;53.224;6.000;2023-03-20T11:51:05;8.23;;;4.40;;
10805;SDS011;5455;53.224;6.000;2023-03-20T11:56:14;9.50;;;4.00;;
10805;SDS011;5455;53.224;6.000;2023-03-20T12:01:41;8.47;;;3.77;;
10805;SDS011;5455;53.224;6.000;2023-03-20T12:04:15;7.43;;;3.97;;
10805;SDS011;5455;53.224;6.000;2023-03-20T12:09:25;3.83;;;3.20;;
10805;SDS011;5455;53.224;6.000;2023-03-20T12:17:30;6.63;;;3.43;;
10805;SDS011;5455;53.224;6.000;2023-03-20T12:20:03;7.10;;;3.90;;
10805;SDS011;5455;53.224;6.000;2023-03-20T12:22:39;6.30;;;3.50;;
10805;SDS011;5455;53.224;6.000;2023-03-20T12:28:02;3.87;;;3.10;;
10805;SDS011;5455;53.224;6.000;2023-03-20T12:30:41;5.60;;;3.20;;
10805;SDS011;5455;53.224;6.000;2023-03-20T12:33:49;7.57;;;3.60;;
10805;SDS011;5455;53.224;6.000;2023-03-20T12:36:20;5.30;;;3.17;;
10805;SDS011;5455;53.224;6.000;2023-03-20T12:38:54;4.87;;;2.90;;
10805;SDS011;5455;53.224;6.000;2023-03-20T12:41:26;6.03;;;3.27;;
10805;SDS011;5455;53.224;6.000;2023-03-20T12:49:59;4.37;;;3.10;;
10805;SDS011;5455;53.224;6.000;2023-03-20T12:52:34;3.90;;;2.97;;
10805;SDS011;5455;53.224;6.000;2023-03-20T12:58:04;5.20;;;3.20;;
10805;SDS011;5455;53.224;6.000;2023-03-20T13:00:52;4.03;;;3.50;;
10805;SDS011;5455;53.224;6.000;2023-03-20T13:06:52;5.13;;;3.40;;
10805;SDS011;5455;53.224;6.000;2023-03-20T13:14:41;3.97;;;3.37;;
10805;SDS011;5455;53.224;6.000;2023-03-20T13:22:30;3.63;;;3.00;;
10805;SDS011;5455;53.224;6.000;2023-03-20T13:27:49;5.23;;;3.63;;
10805;SDS011;5455;53.224;6.000;2023-03-20T13:30:36;3.90;;;2.63;;
10805;SDS011;5455;53.224;6.000;2023-03-20T13:38:34;3.90;;;3.50;;
10805;SDS011;5455;53.224;6.000;2023-03-20T13:41:05;5.00;;;3.10;;
10805;SDS011;5455;53.224;6.000;2023-03-20T13:43:42;3.33;;;2.90;;
10805;SDS011;5455;53.224;6.000;2023-03-20T13:46:19;4.63;;;3.40;;
10805;SDS011;5455;53.224;6.000;2023-03-20T13:52:07;4.30;;;3.30;;
10805;SDS011;5455;53.224;6.000;2023-03-20T14:00:22;4.50;;;3.10;;
10805;SDS011;5455;53.224;6.000;2023-03-20T14:05:37;4.53;;;3.40;;
10805;SDS011;5455;53.224;6.000;2023-03-20T14:13:52;4.17;;;3.70;;
10805;SDS011;5455;53.224;6.000;2023-03-20T14:16:21;6.13;;;3.60;;
10805;SDS011;5455;53.224;6.000;2023-03-20T14:18:49;3.67;;;3.20;;
10805;SDS011;5455;53.224;6.000;2023-03-20T14:21:52;4.57;;;3.60;;
10805;SDS011;5455;53.224;6.000;2023-03-20T14:24:22;3.73;;;3.00;;
10805;SDS011;5455;53.224;6.000;2023-03-20T14:26:56;3.50;;;3.03;;
10805;SDS011;5455;53.224;6.000;2023-03-20T14:32:02;4.07;;;3.40;;
10805;SDS011;5455;53.224;6.000;2023-03-20T14:34:43;4.17;;;3.30;;
10805;SDS011;5455;53.224;6.000;2023-03-20T14:37:26;3.40;;;3.10;;
10805;SDS011;5455;53.224;6.000;2023-03-20T14:40:14;3.67;;;3.33;;
10805;SDS011;5455;53.224;6.000;2023-03-20T14:47:59;4.13;;;3.30;;
10805;SDS011;5455;53.224;6.000;2023-03-20T14:53:16;3.33;;;3.03;;
10805;SDS011;5455;53.224;6.000;2023-03-20T15:03:47;3.07;;;2.80;;
10805;SDS011;5455;53.224;6.000;2023-03-20T15:06:20;3.20;;;2.73;;
10805;SDS011;5455;53.224;6.000;2023-03-20T15:09:00;3.17;;;2.77;;
10805;SDS011;5455;53.224;6.000;2023-03-20T15:11:33;2.53;;;2.33;;
10805;SDS011;5455;53.224;6.000;2023-03-20T15:14:01;2.40;;;2.20;;
10805;SDS011;5455;53.224;6.000;2023-03-20T15:16:33;2.93;;;2.63;;
10805;SDS011;5455;53.224;6.000;2023-03-20T15:19:03;2.87;;;2.60;;
10805;SDS011;5455;53.224;6.000;2023-03-20T15:21:39;2.97;;;2.67;;
10805;SDS011;5455;53.224;6.000;2023-03-20T15:24:13;2.50;;;2.30;;
10805;SDS011;5455;53.224;6.000;2023-03-20T15:26:59;3.33;;;2.70;;
10805;SDS011;5455;53.224;6.000;2023-03-20T15:29:27;2.80;;;2.30;;
10805;SDS011;5455;53.224;6.000;2023-03-20T15:31:57;2.60;;;2.40;;
10805;SDS011;5455;53.224;6.000;2023-03-20T15:34:40;2.60;;;2.40;;
10805;SDS011;5455;53.224;6.000;2023-03-20T15:37:11;2.63;;;2.43;;
10805;SDS011;5455;53.224;6.000;2023-03-20T15:39:42;2.53;;;2.10;;
10805;SDS011;5455;53.224;6.000;2023-03-20T15:42:15;2.30;;;2.10;;
10805;SDS011;5455;53.224;6.000;2023-03-20T15:44:45;2.43;;;2.13;;
10805;SDS011;5455;53.224;6.000;2023-03-20T15:47:15;2.93;;;2.17;;
10805;SDS011;5455;53.224;6.000;2023-03-20T15:49:50;2.40;;;2.20;;
10805;SDS011;5455;53.224;6.000;2023-03-20T15:55:02;2.13;;;1.93;;
10805;SDS011;5455;53.224;6.000;2023-03-20T15:57:33;2.50;;;1.50;;
10805;SDS011;5455;53.224;6.000;2023-03-20T16:00:06;2.03;;;1.63;;
10805;SDS011;5455;53.224;6.000;2023-03-20T16:02:38;1.63;;;1.43;;
10805;SDS011;5455;53.224;6.000;2023-03-20T16:05:10;1.77;;;1.60;;
10805;SDS011;5455;53.224;6.000;2023-03-20T16:07:40;1.77;;;1.53;;
10805;SDS011;5455;53.224;6.000;2023-03-20T16:10:14;1.10;;;1.00;;
10805;SDS011;5455;53.224;6.000;2023-03-20T16:12:47;1.60;;;1.30;;
10805;SDS011;5455;53.224;6.000;2023-03-20T16:15:16;2.27;;;1.50;;
10805;SDS011;5455;53.224;6.000;2023-03-20T16:17:45;1.77;;;1.67;;
10805;SDS011;5455;53.224;6.000;2023-03-20T16:20:17;1.63;;;1.40;;
10805;SDS011;5455;53.224;6.000;2023-03-20T16:22:44;2.97;;;1.43;;
10805;SDS011;5455;53.224;6.000;2023-03-20T16:25:13;1.70;;;1.50;;
10805;SDS011;5455;53.224;6.000;2023-03-20T16:27:44;1.43;;;1.20;;
10805;SDS011;5455;53.224;6.000;2023-03-20T16:30:19;1.23;;;1.10;;
10805;SDS011;5455;53.224;6.000;2023-03-20T16:32:54;1.60;;;1.20;;
10805;SDS011;5455;53.224;6.000;2023-03-20T16:35:26;1.50;;;1.13;;
10805;SDS011;5455;53.224;6.000;2023-03-20T16:37:58;1.10;;;1.00;;
10805;SDS011;5455;53.224;6.000;2023-03-20T16:43:06;1.33;;;1.00;;
10805;SDS011;5455;53.224;6.000;2023-03-20T16:45:37;0.83;;;0.83;;
10805;SDS011;5455;53.224;6.000;2023-03-20T16:50:37;1.00;;;0.90;;
10805;SDS011;5455;53.224;6.000;2023-03-20T16:53:14;1.73;;;1.20;;
10805;SDS011;5455;53.224;6.000;2023-03-20T16:55:44;1.20;;;1.10;;
10805;SDS011;5455;53.224;6.000;2023-03-20T16:58:17;1.50;;;1.40;;
10805;SDS011;5455;53.224;6.000;2023-03-20T17:00:49;1.50;;;1.40;;
10805;SDS011;5455;53.224;6.000;2023-03-20T17:03:23;1.20;;;1.10;;
10805;SDS011;5455;53.224;6.000;2023-03-20T17:05:57;1.40;;;1.30;;
10805;SDS011;5455;53.224;6.000;2023-03-20T17:11:13;2.30;;;1.30;;
10805;SDS011;5455;53.224;6.000;2023-03-20T17:13:43;1.20;;;1.10;;
10805;SDS011;5455;53.224;6.000;2023-03-20T17:16:12;1.33;;;1.20;;
10805;SDS011;5455;53.224;6.000;2023-03-20T17:18:45;0.90;;;0.90;;
10805;SDS011;5455;53.224;6.000;2023-03-20T17:21:13;1.57;;;1.47;;
10805;SDS011;5455;53.224;6.000;2023-03-20T17:23:40;1.60;;;1.50;;
10805;SDS011;5455;53.224;6.000;2023-03-20T17:26:09;1.87;;;1.70;;
10805;SDS011;5455;53.224;6.000;2023-03-20T17:28:38;3.63;;;2.73;;
10805;SDS011;5455;53.224;6.000;2023-03-20T17:31:05;3.33;;;2.50;;
10805;SDS011;5455;53.224;6.000;2023-03-20T17:33:35;3.07;;;2.30;;
10805;SDS011;5455;53.224;6.000;2023-03-20T17:36:02;2.30;;;2.10;;
10805;SDS011;5455;53.224;6.000;2023-03-20T17:38:31;2.30;;;1.97;;
10805;SDS011;5455;53.224;6.000;2023-03-20T17:40:58;2.13;;;1.93;;
10805;SDS011;5455;53.224;6.000;2023-03-20T17:43:25;1.90;;;1.70;;
10805;SDS011;5455;53.224;6.000;2023-03-20T17:45:51;2.27;;;1.87;;
10805;SDS011;5455;53.224;6.000;2023-03-20T17:48:19;2.50;;;2.27;;
10805;SDS011;5455;53.224;6.000;2023-03-20T17:50:47;2.87;;;1.93;;
10805;SDS011;5455;53.224;6.000;2023-03-20T17:53:19;2.63;;;2.03;;
10805;SDS011;5455;53.224;6.000;2023-03-20T17:55:50;2.93;;;2.30;;
10805;SDS011;5455;53.224;6.000;2023-03-20T17:58:19;2.33;;;2.13;;
10805;SDS011;5455;53.224;6.000;2023-03-20T18:00:48;2.50;;;2.30;;
10805;SDS011;5455;53.224;6.000;2023-03-20T18:03:17;2.33;;;2.13;;
10805;SDS011;5455;53.224;6.000;2023-03-20T18:05:45;2.63;;;2.43;;
10805;SDS011;5455;53.224;6.000;2023-03-20T18:08:15;2.10;;;1.90;;
10805;SDS011;5455;53.224;6.000;2023-03-20T18:10:51;2.60;;;2.40;;
10805;SDS011;5455;53.224;6.000;2023-03-20T18:13:21;3.43;;;2.40;;